Time;durP1;ratioP1;P1;durP2;ratioP2;P2;SDS_P1;SDS_P2;PMS_P1;PMS_P2;Temp;Humidity;BMP_temperature;BMP_pressure;BME280_temperature;BME280_humidity;BME280_pressure;Samples;Min_cycle;Max_cycle;Signal;HPM_P1;HPM_P2
2023/08/16 00:00:50;;;;;;;8.20;2.97;;;15.90;99.90;;;;;;5044816;28;20061;-70
2023/08/16 00:03:15;;;;;;;8.80;3.40;;;15.80;99.90;;;;;;5044723;28;20052;-70
2023/08/16 00:05:44;;;;;;;11.07;3.50;;;15.80;99.90;;;;;;5044186;28;20183;-70
2023/08/16 00:08:10;;;;;;;7.25;3.45;;;15.80;99.90;;;;;;5039629;28;20514;-70
2023/08/16 00:10:36;;;;;;;9.55;3.80;;;15.70;99.90;;;;;;5045360;28;20041;-69
2023/08/16 00:13:02;;;;;;;9.00;3.90;;;15.70;99.90;;;;;;5043169;28;20040;-70
2023/08/16 00:15:27;;;;;;;7.22;3.83;;;15.70;99.90;;;;;;5026987;28;20060;-69
2023/08/16 00:17:53;;;;;;;8.98;4.00;;;15.70;99.90;;;;;;5043681;28;20040;-68
2023/08/16 00:20:26;;;;;;;8.52;4.00;;;15.70;99.90;;;;;;5042858;28;20756;-69
2023/08/16 00:22:52;;;;;;;7.25;3.95;;;15.60;99.90;;;;;;5042454;28;20383;-69
2023/08/16 00:25:18;;;;;;;6.20;3.67;;;15.60;99.90;;;;;;5044257;28;20152;-69
2023/08/16 00:27:44;;;;;;;14.30;4.03;;;15.50;99.90;;;;;;5044412;28;20033;-70
2023/08/16 00:30:11;;;;;;;12.40;4.22;;;15.60;99.90;;;;;;5040658;28;20086;-69
2023/08/16 00:32:37;;;;;;;9.45;4.20;;;15.50;99.90;;;;;;5042455;28;20127;-67
2023/08/16 00:35:04;;;;;;;7.72;3.80;;;15.40;99.90;;;;;;5026604;28;20041;-67
2023/08/16 00:37:30;;;;;;;7.15;3.80;;;15.40;99.90;;;;;;5024738;28;20040;-68
2023/08/16 00:39:56;;;;;;;7.68;4.00;;;15.40;99.90;;;;;;5043610;28;20104;-68
2023/08/16 00:42:22;;;;;;;9.68;3.85;;;15.40;99.90;;;;;;5043595;28;20045;-68
2023/08/16 00:44:48;;;;;;;9.68;4.22;;;15.30;99.90;;;;;;5044437;28;20064;-67
2023/08/16 00:47:14;;;;;;;7.20;3.60;;;15.30;99.90;;;;;;5043358;28;20133;-68
2023/08/16 00:49:40;;;;;;;8.65;4.40;;;15.30;99.90;;;;;;5044273;28;20461;-68
2023/08/16 00:52:06;;;;;;;7.85;4.50;;;15.20;99.90;;;;;;5041029;28;20143;-69
2023/08/16 00:54:32;;;;;;;7.78;4.85;;;15.20;99.90;;;;;;5026153;28;20517;-68
2023/08/16 00:56:59;;;;;;;9.40;4.97;;;15.20;99.90;;;;;;5044038;28;20049;-68
2023/08/16 00:59:27;;;;;;;8.98;5.07;;;15.20;99.90;;;;;;5027128;28;21916;-69
2023/08/16 01:01:53;;;;;;;9.05;4.88;;;15.10;99.90;;;;;;5044854;28;20087;-69
2023/08/16 01:04:20;;;;;;;10.63;4.75;;;15.10;99.90;;;;;;5042468;28;20039;-68
2023/08/16 01:06:45;;;;;;;9.15;4.70;;;15.10;99.90;;;;;;5040641;28;20342;-68
2023/08/16 01:09:11;;;;;;;11.07;4.95;;;15.10;99.90;;;;;;5043026;28;20053;-68
2023/08/16 01:11:47;;;;;;;6.80;4.25;;;15.00;99.90;;;;;;5043488;28;20044;-68
2023/08/16 01:14:19;;;;;;;10.55;4.80;;;15.00;99.90;;;;;;5041579;28;20045;-69
2023/08/16 01:16:47;;;;;;;7.05;4.32;;;15.00;99.90;;;;;;5038829;28;20044;-68
2023/08/16 01:19:27;;;;;;;9.52;4.60;;;14.90;99.90;;;;;;5042197;28;20056;-69
2023/08/16 01:22:08;;;;;;;8.60;4.50;;;15.00;99.90;;;;;;5043652;28;20037;-70
2023/08/16 01:24:38;;;;;;;;;;;14.90;99.90;;;;;;5043464;28;20452;-69
2023/08/16 01:27:05;;;;;;;10.20;4.32;;;14.90;99.90;;;;;;5042971;28;19932;-69
2023/08/16 01:29:31;;;;;;;7.88;4.38;;;14.90;99.90;;;;;;5042220;28;20075;-68
2023/08/16 01:31:57;;;;;;;10.88;4.88;;;14.90;99.90;;;;;;5042231;28;20047;-68
2023/08/16 01:34:23;;;;;;;7.95;4.30;;;14.80;99.90;;;;;;5041038;28;20048;-68
2023/08/16 01:36:48;;;;;;;7.50;4.70;;;14.80;99.90;;;;;;5041419;28;20600;-69
2023/08/16 01:39:14;;;;;;;8.15;4.80;;;14.80;99.90;;;;;;5041500;28;20847;-68
2023/08/16 01:41:49;;;;;;;7.05;3.97;;;14.80;99.90;;;;;;5024910;28;20041;-69
2023/08/16 01:44:18;;;;;;;8.80;4.63;;;14.70;99.90;;;;;;5043647;28;20080;-68
2023/08/16 01:46:45;;;;;;;9.90;4.82;;;14.80;99.90;;;;;;5041635;28;20048;-69
2023/08/16 01:49:11;;;;;;;13.35;5.18;;;14.70;99.90;;;;;;5040637;28;20533;-69
2023/08/16 01:51:38;;;;;;;10.40;4.75;;;14.70;99.90;;;;;;5041706;28;20908;-69
2023/08/16 01:54:04;;;;;;;8.88;4.43;;;14.70;99.90;;;;;;5025404;28;20107;-69
2023/08/16 01:56:30;;;;;;;9.05;4.97;;;14.70;99.90;;;;;;5025113;28;20581;-70
2023/08/16 01:58:56;;;;;;;7.88;4.80;;;14.60;99.90;;;;;;5024503;28;20124;-71
2023/08/16 02:01:22;;;;;;;7.22;4.40;;;14.60;99.90;;;;;;5042161;28;20056;-70
2023/08/16 02:03:48;;;;;;;9.88;5.10;;;14.60;99.90;;;;;;5041716;28;20070;-70
2023/08/16 02:06:14;;;;;;;10.55;4.93;;;14.60;99.90;;;;;;5042342;28;20051;-70
2023/08/16 02:08:40;;;;;;;8.48;4.82;;;14.50;99.90;;;;;;5040842;28;20032;-71
2023/08/16 02:11:05;;;;;;;10.88;5.40;;;14.50;99.90;;;;;;5042843;28;20041;-70
2023/08/16 02:13:31;;;;;;;10.90;5.10;;;14.50;99.90;;;;;;5024037;28;20037;-70
2023/08/16 02:16:03;;;;;;;10.80;5.18;;;14.50;99.90;;;;;;5040849;28;20052;-70
2023/08/16 02:18:30;;;;;;;8.52;5.10;;;14.40;99.90;;;;;;5040335;28;20067;-70
2023/08/16 02:20:57;;;;;;;11.13;5.22;;;14.40;99.90;;;;;;5042122;28;20033;-70
2023/08/16 02:23:23;;;;;;;8.07;5.03;;;14.40;99.90;;;;;;5043151;28;20075;-70
2023/08/16 02:25:49;;;;;;;8.75;5.65;;;14.40;99.90;;;;;;5040629;28;20167;-70
2023/08/16 02:28:15;;;;;;;9.85;5.43;;;14.40;99.90;;;;;;5042456;28;20032;-70
2023/08/16 02:30:41;;;;;;;9.75;5.40;;;14.40;99.90;;;;;;5041906;28;20049;-70
2023/08/16 02:33:06;;;;;;;9.13;5.15;;;14.40;99.90;;;;;;5043147;28;20048;-71
2023/08/16 02:35:32;;;;;;;9.85;5.25;;;14.40;99.90;;;;;;5041201;28;20049;-70
2023/08/16 02:37:58;;;;;;;8.57;4.70;;;14.30;99.90;;;;;;5043931;28;20048;-71
2023/08/16 02:40:24;;;;;;;9.60;5.47;;;14.30;99.90;;;;;;5042998;28;20249;-70
2023/08/16 02:42:50;;;;;;;8.68;5.03;;;14.30;99.90;;;;;;5044896;28;20033;-68
2023/08/16 02:45:17;;;;;;;8.13;5.40;;;14.30;99.90;;;;;;5057515;28;20489;-70
2023/08/16 02:47:43;;;;;;;9.88;5.68;;;14.30;99.90;;;;;;5045878;28;20103;-70
2023/08/16 02:50:09;;;;;;;9.48;5.70;;;14.20;99.90;;;;;;5046312;28;20045;-69
2023/08/16 02:52:35;;;;;;;8.13;5.82;;;14.20;99.90;;;;;;5047258;28;20044;-71
2023/08/16 02:55:01;;;;;;;9.30;5.60;;;14.20;99.90;;;;;;5046098;28;20522;-69
2023/08/16 02:57:26;;;;;;;8.82;5.63;;;14.20;99.90;;;;;;5045834;28;20178;-69
2023/08/16 02:59:53;;;;;;;8.75;5.68;;;14.20;99.90;;;;;;5045361;28;20049;-69
2023/08/16 03:02:19;;;;;;;11.15;5.82;;;14.10;99.90;;;;;;5046259;28;20045;-69
2023/08/16 03:04:45;;;;;;;10.77;5.47;;;14.10;99.90;;;;;;5045318;28;20037;-69
2023/08/16 03:07:11;;;;;;;8.50;4.97;;;14.10;99.90;;;;;;5043849;28;20087;-70
2023/08/16 03:09:38;;;;;;;8.18;5.32;;;14.10;99.90;;;;;;5042682;28;20087;-70
2023/08/16 03:12:04;;;;;;;8.75;5.40;;;14.10;99.90;;;;;;5045781;28;20049;-70
2023/08/16 03:14:30;;;;;;;7.88;4.45;;;14.10;99.90;;;;;;5043326;28;20045;-70
2023/08/16 03:16:59;;;;;;;8.80;5.28;;;14.10;99.90;;;;;;5028201;28;20119;-70
2023/08/16 03:19:25;;;;;;;9.35;5.10;;;14.10;99.90;;;;;;5044939;28;20045;-70
2023/08/16 03:21:54;;;;;;;10.43;4.97;;;14.00;99.90;;;;;;5028526;28;20041;-70
2023/08/16 03:24:20;;;;;;;10.68;5.30;;;14.00;99.90;;;;;;5044721;28;20036;-70
2023/08/16 03:26:45;;;;;;;8.80;5.05;;;14.00;99.90;;;;;;5042727;28;20048;-70
2023/08/16 03:29:11;;;;;;;10.85;4.75;;;14.00;99.90;;;;;;5027002;28;20152;-70
2023/08/16 03:31:37;;;;;;;9.50;4.70;;;13.90;99.90;;;;;;5044054;28;20712;-70
2023/08/16 03:34:03;;;;;;;9.93;5.22;;;13.90;99.90;;;;;;5043090;28;20460;-70
2023/08/16 03:36:29;;;;;;;8.52;4.65;;;13.90;99.90;;;;;;5046040;28;20394;-71
2023/08/16 03:38:55;;;;;;;8.68;4.50;;;13.90;99.90;;;;;;5041631;28;20045;-71
2023/08/16 03:41:21;;;;;;;7.72;4.85;;;13.90;99.90;;;;;;5041455;28;20056;-71
2023/08/16 03:43:47;;;;;;;8.50;5.25;;;13.90;99.90;;;;;;5043327;28;20037;-70
2023/08/16 03:46:12;;;;;;;10.23;4.53;;;13.90;99.90;;;;;;5042081;28;20147;-70
2023/08/16 03:48:38;;;;;;;8.40;4.88;;;13.80;99.90;;;;;;5072010;28;20125;-70
2023/08/16 03:51:04;;;;;;;9.50;4.28;;;13.80;99.90;;;;;;5040299;28;20035;-70
2023/08/16 03:53:29;;;;;;;7.75;4.15;;;13.80;99.90;;;;;;5069475;28;20057;-70
2023/08/16 03:55:56;;;;;;;7.68;4.43;;;13.80;99.90;;;;;;5049151;28;20099;-70
2023/08/16 03:58:22;;;;;;;6.15;3.75;;;13.80;99.90;;;;;;5031783;28;20130;-70
2023/08/16 04:00:50;;;;;;;9.68;4.15;;;13.80;99.90;;;;;;5039751;28;20053;-70
2023/08/16 04:03:16;;;;;;;7.13;4.38;;;13.70;99.90;;;;;;5037363;28;20150;-69
2023/08/16 04:05:42;;;;;;;9.25;4.60;;;13.70;99.90;;;;;;5035339;28;20274;-69
2023/08/16 04:08:07;;;;;;;8.27;4.95;;;13.70;99.90;;;;;;5033454;28;20071;-70
2023/08/16 04:10:33;;;;;;;7.55;4.30;;;13.70;99.90;;;;;;5032181;28;20190;-70
2023/08/16 04:12:59;;;;;;;7.05;4.13;;;13.70;99.90;;;;;;5034238;28;20045;-69
2023/08/16 04:15:25;;;;;;;15.57;4.25;;;13.70;99.90;;;;;;5035166;28;20410;-70
2023/08/16 04:17:51;;;;;;;9.98;3.88;;;13.60;99.90;;;;;;5026966;28;20040;-70
2023/08/16 04:20:17;;;;;;;6.40;3.75;;;13.60;99.90;;;;;;5041662;28;20055;-70
2023/08/16 04:22:42;;;;;;;7.55;4.60;;;13.60;99.90;;;;;;5038878;28;20094;-70
2023/08/16 04:25:09;;;;;;;7.00;4.22;;;13.60;99.90;;;;;;5035473;28;20526;-72
2023/08/16 04:27:35;;;;;;;6.72;3.97;;;13.60;99.90;;;;;;5034708;28;20128;-71
2023/08/16 04:30:01;;;;;;;6.85;4.53;;;13.60;99.90;;;;;;5036750;28;20489;-70
2023/08/16 04:32:26;;;;;;;6.05;3.75;;;13.60;99.90;;;;;;5022995;28;20047;-71
2023/08/16 04:34:52;;;;;;;7.60;4.03;;;13.50;99.90;;;;;;4982264;28;1261871;-70
2023/08/16 04:37:18;;;;;;;6.35;4.10;;;13.50;99.90;;;;;;5043055;28;20053;-71
2023/08/16 04:39:44;;;;;;;6.68;3.92;;;13.50;99.90;;;;;;5043334;28;20052;-70
2023/08/16 04:42:09;;;;;;;9.10;4.50;;;13.50;99.90;;;;;;5040749;28;20469;-71
2023/08/16 04:44:35;;;;;;;6.05;3.92;;;13.50;99.90;;;;;;5040370;28;20040;-71
2023/08/16 04:47:01;;;;;;;8.30;3.78;;;13.50;99.90;;;;;;5037232;28;20449;-71
2023/08/16 04:49:28;;;;;;;9.27;4.10;;;13.50;99.90;;;;;;5041005;28;20532;-69
2023/08/16 04:51:54;;;;;;;8.35;4.45;;;13.50;99.90;;;;;;5041207;28;20454;-69
2023/08/16 04:54:19;;;;;;;10.63;4.20;;;13.50;99.90;;;;;;5039432;28;20060;-71
2023/08/16 04:56:45;;;;;;;8.05;4.22;;;13.50;99.90;;;;;;5037702;28;20163;-70
2023/08/16 04:59:11;;;;;;;9.60;4.32;;;13.50;99.90;;;;;;5041540;28;20045;-70
2023/08/16 05:01:37;;;;;;;6.00;3.92;;;13.40;99.90;;;;;;5020181;28;20083;-69
2023/08/16 05:04:03;;;;;;;7.10;4.03;;;13.50;99.90;;;;;;5041197;28;20056;-70
2023/08/16 05:06:31;;;;;;;7.72;3.80;;;13.50;99.90;;;;;;5039320;28;20045;-70
2023/08/16 05:08:57;;;;;;;7.00;3.97;;;13.50;99.90;;;;;;5041178;28;20064;-70
2023/08/16 05:11:23;;;;;;;8.05;4.25;;;13.50;99.90;;;;;;5044528;28;20146;-68
2023/08/16 05:13:48;;;;;;;7.18;4.10;;;13.50;99.90;;;;;;5040558;28;20047;-69
2023/08/16 05:16:14;;;;;;;8.23;4.70;;;13.50;99.90;;;;;;5042411;28;20048;-69
2023/08/16 05:18:40;;;;;;;7.47;4.50;;;13.50;99.90;;;;;;5042359;28;20045;-69
2023/08/16 05:21:06;;;;;;;9.40;4.68;;;13.50;99.90;;;;;;5043258;28;20029;-69
2023/08/16 05:23:33;;;;;;;8.77;4.35;;;13.60;99.90;;;;;;5040964;28;20056;-70
2023/08/16 05:25:59;;;;;;;7.95;4.50;;;13.60;99.90;;;;;;5043815;28;20106;-70
2023/08/16 05:28:25;;;;;;;12.68;4.82;;;13.60;99.90;;;;;;5041711;28;20037;-69
2023/08/16 05:30:51;;;;;;;9.63;5.00;;;13.60;99.90;;;;;;5043987;28;20107;-70
2023/08/16 05:33:17;;;;;;;9.88;4.95;;;13.60;99.90;;;;;;5042592;28;20033;-70
2023/08/16 05:35:43;;;;;;;8.88;5.53;;;13.70;99.90;;;;;;5043371;28;20048;-70
2023/08/16 05:38:08;;;;;;;8.68;5.53;;;13.70;99.90;;;;;;5040490;28;20048;-71
2023/08/16 05:40:34;;;;;;;10.32;5.00;;;13.70;99.90;;;;;;5026392;28;20728;-70
2023/08/16 05:43:00;;;;;;;10.48;6.45;;;13.80;99.90;;;;;;5042343;28;20049;-70
2023/08/16 05:45:28;;;;;;;9.88;4.97;;;13.80;99.90;;;;;;5024833;28;20059;-71
2023/08/16 05:47:54;;;;;;;9.52;5.10;;;13.80;99.90;;;;;;5044750;28;20464;-71
2023/08/16 05:50:21;;;;;;;9.73;7.03;;;13.90;99.90;;;;;;5041767;28;20080;-71
2023/08/16 05:52:46;;;;;;;11.05;7.60;;;13.90;99.90;;;;;;5039365;28;20052;-70
2023/08/16 05:55:12;;;;;;;17.50;8.60;;;13.90;99.90;;;;;;5042089;28;20040;-71
2023/08/16 05:57:38;;;;;;;11.85;8.13;;;14.00;99.90;;;;;;5042486;28;20072;-71
2023/08/16 06:00:04;;;;;;;14.73;8.45;;;14.10;99.90;;;;;;5041119;28;20063;-71
2023/08/16 06:02:30;;;;;;;13.57;7.72;;;14.10;99.90;;;;;;5043317;28;20047;-71
2023/08/16 06:04:58;;;;;;;11.18;7.43;;;14.20;99.90;;;;;;5026053;28;20041;-71
2023/08/16 06:07:26;;;;;;;11.73;7.38;;;14.30;99.90;;;;;;5042324;28;20068;-70
2023/08/16 06:09:52;;;;;;;10.73;6.78;;;14.30;99.90;;;;;;5043291;28;20079;-70
2023/08/16 06:12:18;;;;;;;12.85;7.15;;;14.40;99.90;;;;;;5041927;28;20077;-70
2023/08/16 06:14:44;;;;;;;10.88;7.28;;;14.40;99.90;;;;;;5037984;28;20045;-70
2023/08/16 06:17:10;;;;;;;9.52;6.32;;;14.40;99.90;;;;;;5037743;28;20871;-71
2023/08/16 06:19:35;;;;;;;12.85;7.13;;;14.50;99.90;;;;;;5043143;28;20124;-70
2023/08/16 06:22:02;;;;;;;13.50;7.22;;;14.50;99.90;;;;;;5027728;28;20052;-71
2023/08/16 06:24:34;;;;;;;13.27;6.68;;;14.60;99.90;;;;;;5041392;28;20084;-70
2023/08/16 06:26:59;;;;;;;15.45;6.80;;;14.60;99.90;;;;;;5044788;28;20091;-71
2023/08/16 06:29:25;;;;;;;11.32;7.28;;;14.80;99.90;;;;;;5039250;28;20072;-71
2023/08/16 06:31:54;;;;;;;14.63;7.22;;;14.90;99.90;;;;;;5041570;28;20044;-71
2023/08/16 06:34:20;;;;;;;10.32;6.45;;;15.10;99.90;;;;;;5038526;28;20049;-71
2023/08/16 06:36:46;;;;;;;13.65;6.93;;;15.20;99.90;;;;;;5041440;28;20138;-71
2023/08/16 06:39:13;;;;;;;12.00;6.40;;;15.30;99.90;;;;;;5039285;28;20063;-71
2023/08/16 06:41:39;;;;;;;9.85;5.55;;;15.40;99.90;;;;;;5042124;28;20525;-71
2023/08/16 06:44:05;;;;;;;12.25;5.57;;;15.40;99.90;;;;;;5043173;28;20075;-72
2023/08/16 06:46:31;;;;;;;10.57;5.18;;;15.50;99.90;;;;;;5039647;28;20041;-71
2023/08/16 06:48:57;;;;;;;13.10;5.20;;;15.60;99.90;;;;;;5040909;28;20399;-71
2023/08/16 06:51:23;;;;;;;12.82;4.43;;;15.70;99.90;;;;;;5024414;28;20118;-71
2023/08/16 06:53:50;;;;;;;9.70;4.13;;;15.70;99.90;;;;;;5043408;28;20037;-72
2023/08/16 06:56:16;;;;;;;14.30;4.65;;;15.80;99.90;;;;;;5042085;28;20103;-71
2023/08/16 06:58:42;;;;;;;9.98;4.95;;;15.90;99.90;;;;;;5043102;28;20452;-71
2023/08/16 07:01:08;;;;;;;10.15;4.72;;;16.00;99.90;;;;;;5042310;28;20095;-71
2023/08/16 07:03:35;;;;;;;8.18;4.15;;;16.00;99.90;;;;;;5043683;28;20040;-71
2023/08/16 07:06:01;;;;;;;7.97;3.42;;;16.10;99.90;;;;;;5040647;28;20362;-71
2023/08/16 07:08:27;;;;;;;8.70;3.85;;;16.10;99.90;;;;;;5041953;28;20055;-71
2023/08/16 07:10:54;;;;;;;9.75;3.55;;;16.20;99.90;;;;;;5040410;28;20045;-72
2023/08/16 07:13:20;;;;;;;9.05;3.60;;;16.20;99.90;;;;;;5041994;28;20033;-71
2023/08/16 07:15:46;;;;;;;7.78;3.30;;;16.30;99.90;;;;;;5041662;28;20045;-72
2023/08/16 07:18:12;;;;;;;8.95;3.72;;;16.30;99.90;;;;;;5039241;28;20387;-71
2023/08/16 07:20:38;;;;;;;7.22;3.63;;;16.40;99.90;;;;;;5040360;28;20060;-71
2023/08/16 07:23:05;;;;;;;9.05;4.20;;;16.50;99.90;;;;;;5043512;28;20036;-71
2023/08/16 07:25:31;;;;;;;7.47;3.97;;;16.60;99.90;;;;;;5041785;28;20072;-71
2023/08/16 07:27:56;;;;;;;7.07;3.00;;;16.60;99.90;;;;;;5031546;28;20371;-72
2023/08/16 07:30:22;;;;;;;9.77;3.67;;;16.70;99.90;;;;;;5037159;28;20640;-71
2023/08/16 07:32:48;;;;;;;10.85;2.95;;;16.80;99.90;;;;;;5065053;28;20052;-71
2023/08/16 07:35:14;;;;;;;6.97;2.80;;;16.90;99.90;;;;;;5027804;28;20042;-71
2023/08/16 07:37:39;;;;;;;7.68;2.53;;;16.90;99.90;;;;;;5027521;28;20738;-70
2023/08/16 07:40:06;;;;;;;9.02;2.60;;;17.00;99.90;;;;;;5026813;28;20049;-71
2023/08/16 07:42:32;;;;;;;8.40;3.03;;;17.10;99.90;;;;;;5059683;28;20089;-70
2023/08/16 07:44:59;;;;;;;8.00;2.60;;;17.10;99.90;;;;;;5029769;28;20053;-71
2023/08/16 07:47:28;;;;;;;6.18;2.33;;;17.30;99.90;;;;;;5028619;28;20037;-70
2023/08/16 07:49:54;;;;;;;5.53;2.10;;;17.40;99.90;;;;;;5047024;28;20124;-71
2023/08/16 07:52:20;;;;;;;6.90;2.22;;;17.60;99.90;;;;;;5059589;28;20663;-72
2023/08/16 07:54:46;;;;;;;6.68;2.45;;;17.70;99.90;;;;;;5031077;28;20076;-72
2023/08/16 07:57:12;;;;;;;7.82;2.72;;;17.90;99.90;;;;;;5032215;28;20045;-70
2023/08/16 07:59:39;;;;;;;7.43;2.33;;;18.00;99.90;;;;;;5031151;28;20053;-70
2023/08/16 08:02:06;;;;;;;8.80;2.42;;;18.20;99.90;;;;;;5028410;28;20102;-70
2023/08/16 08:04:36;;;;;;;5.28;2.08;;;18.30;99.90;;;;;;5030024;28;20033;-71
2023/08/16 08:07:02;;;;;;;6.28;2.10;;;18.40;99.90;;;;;;5030718;28;20080;-71
2023/08/16 08:09:28;;;;;;;5.95;2.22;;;18.50;99.90;;;;;;5031690;28;20055;-71
2023/08/16 08:11:54;;;;;;;5.47;1.70;;;18.60;99.90;;;;;;5030581;28;20045;-71
2023/08/16 08:14:19;;;;;;;5.78;2.13;;;18.60;99.90;;;;;;5030327;28;20568;-71
2023/08/16 08:16:45;;;;;;;7.47;2.42;;;18.70;99.90;;;;;;5013168;28;20052;-72
2023/08/16 08:19:11;;;;;;;5.55;2.50;;;18.80;99.90;;;;;;5032461;28;20244;-70
2023/08/16 08:21:37;;;;;;;9.70;2.38;;;18.80;99.90;;;;;;5056777;28;20079;-71
2023/08/16 08:24:03;;;;;;;4.60;2.10;;;18.90;99.90;;;;;;5022430;28;20410;-71
2023/08/16 08:26:30;;;;;;;7.05;2.40;;;19.00;99.90;;;;;;5039072;28;20040;-71
2023/08/16 08:28:56;;;;;;;5.45;2.10;;;19.00;99.90;;;;;;5042034;28;20041;-71
2023/08/16 08:31:23;;;;;;;7.22;2.10;;;19.10;99.90;;;;;;5026244;28;20047;-71
2023/08/16 08:33:49;;;;;;;4.25;1.98;;;19.10;99.90;;;;;;5045758;28;20096;-71
2023/08/16 08:36:15;;;;;;;5.78;2.60;;;19.30;99.90;;;;;;5039420;28;20095;-71
2023/08/16 08:38:42;;;;;;;6.80;2.30;;;19.40;99.90;;;;;;5040653;28;20045;-71
2023/08/16 08:41:08;;;;;;;5.57;2.30;;;19.50;99.90;;;;;;5045043;28;20564;-72
2023/08/16 08:43:36;;;;;;;5.10;1.98;;;19.50;99.90;;;;;;5044697;28;20049;-71
2023/08/16 08:46:05;;;;;;;6.68;2.28;;;19.60;99.90;;;;;;5038984;28;20127;-71
2023/08/16 08:48:31;;;;;;;6.70;2.40;;;19.70;99.90;;;;;;5035626;28;20041;-70
2023/08/16 08:50:58;;;;;;;5.38;1.90;;;19.80;99.90;;;;;;5039340;28;20120;-72
2023/08/16 08:53:25;;;;;;;6.13;2.35;;;19.90;99.90;;;;;;5041027;28;20065;-71
2023/08/16 08:55:52;;;;;;;7.10;2.20;;;20.00;99.90;;;;;;5038313;28;20045;-72
2023/08/16 08:58:19;;;;;;;6.70;2.17;;;20.10;99.90;;;;;;5035873;28;20048;-71
2023/08/16 09:00:46;;;;;;;4.10;1.80;;;20.20;99.90;;;;;;5036227;28;20143;-71
2023/08/16 09:03:15;;;;;;;5.07;1.80;;;20.10;99.90;;;;;;5030078;28;20047;-71
2023/08/16 09:05:42;;;;;;;4.57;1.70;;;20.20;99.90;;;;;;5027668;28;20068;-72
2023/08/16 09:08:13;;;;;;;5.65;2.50;;;20.20;99.90;;;;;;5029663;28;20417;-70
2023/08/16 09:10:39;;;;;;;6.53;1.55;;;20.20;99.90;;;;;;5028281;28;20053;-71
2023/08/16 09:13:08;;;;;;;4.65;1.30;;;20.20;99.90;;;;;;5030671;28;21044;-72
2023/08/16 09:15:34;;;;;;;4.78;1.88;;;20.30;99.90;;;;;;5013684;28;20076;-72
2023/08/16 09:18:26;;;;;;;5.00;1.45;;;20.40;99.90;;;;;;5030284;28;20175;-72
2023/08/16 09:20:52;;;;;;;3.55;1.20;;;20.40;99.90;;;;;;5026989;28;20051;-72
2023/08/16 09:23:18;;;;;;;3.83;1.30;;;20.50;99.90;;;;;;5028668;28;21018;-72
2023/08/16 09:25:45;;;;;;;5.50;1.40;;;20.50;99.90;;;;;;5025341;28;20498;-72
2023/08/16 09:28:13;;;;;;;5.45;1.50;;;20.50;99.90;;;;;;5045543;28;22095;-72
2023/08/16 09:30:40;;;;;;;4.70;1.60;;;20.60;99.90;;;;;;5029510;28;20051;-72
2023/08/16 09:33:10;;;;;;;6.20;1.45;;;20.50;99.90;;;;;;5026825;28;21210;-72
2023/08/16 09:35:45;;;;;;;6.97;1.35;;;20.50;99.90;;;;;;5059344;28;20053;-71
2023/08/16 09:38:14;;;;;;;5.50;1.30;;;20.60;99.90;;;;;;5027188;28;20090;-71
2023/08/16 09:40:49;;;;;;;4.90;1.60;;;20.70;99.90;;;;;;5025283;28;20139;-71
2023/08/16 09:43:15;;;;;;;5.68;1.52;;;20.70;99.90;;;;;;5027575;28;20501;-71
2023/08/16 09:45:42;;;;;;;5.10;1.45;;;20.70;99.90;;;;;;5027266;28;20055;-72
2023/08/16 09:48:09;;;;;;;6.07;1.52;;;20.80;99.90;;;;;;5027309;28;20053;-71
2023/08/16 09:50:35;;;;;;;4.90;1.30;;;20.90;99.90;;;;;;5025129;28;20049;-71
2023/08/16 09:53:05;;;;;;;4.35;1.30;;;20.90;99.90;;;;;;5031383;28;20132;-72
2023/08/16 09:55:35;;;;;;;4.57;1.20;;;20.90;99.90;;;;;;5020903;28;20782;-72
2023/08/16 09:58:01;;;;;;;3.30;1.13;;;20.90;99.90;;;;;;5029052;28;20052;-71
2023/08/16 10:00:30;;;;;;;7.60;1.60;;;21.00;99.90;;;;;;5027846;28;20331;-72
2023/08/16 10:02:56;;;;;;;5.15;1.35;;;21.00;99.90;;;;;;5027852;28;20049;-71
2023/08/16 10:05:24;;;;;;;3.90;1.30;;;21.10;99.90;;;;;;5023744;28;20088;-72
2023/08/16 10:07:51;;;;;;;5.68;1.50;;;21.10;99.90;;;;;;5027411;28;20055;-72
2023/08/16 10:10:18;;;;;;;4.88;1.20;;;21.20;99.90;;;;;;5029340;28;20045;-72
2023/08/16 10:12:45;;;;;;;4.15;1.27;;;21.20;99.90;;;;;;5026269;28;20041;-72
2023/08/16 10:15:12;;;;;;;4.78;1.20;;;21.10;99.90;;;;;;5056308;28;20054;-72
2023/08/16 10:17:40;;;;;;;6.47;1.77;;;21.20;99.90;;;;;;5060294;28;20080;-71
2023/08/16 10:20:25;;;;;;;5.22;1.40;;;21.20;99.90;;;;;;5026386;28;20434;-71
2023/08/16 10:23:12;;;;;;;3.88;1.30;;;21.20;99.90;;;;;;5038656;28;20131;-73
2023/08/16 10:25:47;;;;;;;3.42;0.95;;;21.30;99.90;;;;;;5024169;28;20173;-71
2023/08/16 10:28:15;;;;;;;4.43;1.50;;;21.30;99.90;;;;;;5026299;28;20493;-68
2023/08/16 10:30:45;;;;;;;7.38;1.20;;;21.30;99.90;;;;;;5022005;28;20055;-68
2023/08/16 10:33:26;;;;;;;5.32;1.30;;;21.30;99.90;;;;;;5037864;28;20586;-70
2023/08/16 10:35:53;;;;;;;4.57;1.42;;;21.40;99.90;;;;;;5023620;28;20045;-68
2023/08/16 10:38:19;;;;;;;4.18;1.10;;;21.40;99.90;;;;;;5031088;28;20037;-69
2023/08/16 10:40:57;;;;;;;4.85;1.30;;;21.50;99.90;;;;;;5025753;28;20078;-69
2023/08/16 10:43:32;;;;;;;5.20;1.27;;;21.60;99.90;;;;;;5020777;28;20055;-68
2023/08/16 10:45:58;;;;;;;2.97;1.00;;;21.60;99.90;;;;;;5027088;28;20928;-69
2023/08/16 10:48:23;;;;;;;3.47;1.00;;;21.60;99.90;;;;;;5032340;28;20064;-69
2023/08/16 10:51:00;;;;;;;5.40;1.05;;;21.60;99.90;;;;;;5033292;28;20533;-69
2023/08/16 10:53:27;;;;;;;5.72;1.10;;;21.60;99.90;;;;;;5035329;28;20075;-69
2023/08/16 10:55:55;;;;;;;4.38;1.00;;;21.70;99.90;;;;;;5023245;28;20056;-68
2023/08/16 10:58:24;;;;;;;5.82;0.93;;;21.70;99.90;;;;;;5049696;28;20087;-68
2023/08/16 11:00:56;;;;;;;3.63;1.10;;;21.70;99.90;;;;;;5023560;28;20472;-68
2023/08/16 11:03:22;;;;;;;2.38;1.00;;;21.80;99.90;;;;;;5040528;28;20048;-68
2023/08/16 11:05:48;;;;;;;6.50;1.00;;;21.80;99.90;;;;;;5035875;28;20041;-69
2023/08/16 11:08:15;;;;;;;5.10;1.00;;;21.90;99.90;;;;;;5019346;28;20862;-68
2023/08/16 11:10:41;;;;;;;2.83;0.90;;;21.90;99.90;;;;;;5037287;28;20049;-68
2023/08/16 11:13:11;;;;;;;3.78;1.05;;;21.90;99.90;;;;;;5040829;28;20155;-68
2023/08/16 11:15:37;;;;;;;3.88;1.00;;;21.90;99.90;;;;;;5040747;28;20461;-69
2023/08/16 11:18:03;;;;;;;2.90;0.98;;;22.00;99.90;;;;;;5041680;28;20041;-69
2023/08/16 11:20:29;;;;;;;3.75;0.95;;;22.00;99.90;;;;;;5021745;28;20037;-68
2023/08/16 11:22:57;;;;;;;3.50;0.88;;;21.90;99.90;;;;;;5032051;28;20413;-68
2023/08/16 11:25:23;;;;;;;4.10;1.08;;;21.90;99.90;;;;;;5031838;28;20037;-68
2023/08/16 11:27:50;;;;;;;3.85;0.80;;;21.80;99.90;;;;;;5042754;28;20103;-68
2023/08/16 11:30:17;;;;;;;3.03;0.80;;;21.70;99.90;;;;;;5057059;28;20041;-68
2023/08/16 11:32:43;;;;;;;4.00;0.98;;;21.70;99.90;;;;;;5038481;28;20055;-68
2023/08/16 11:35:11;;;;;;;5.13;0.90;;;21.60;99.90;;;;;;5041715;28;20426;-68
2023/08/16 11:37:40;;;;;;;2.83;1.08;;;21.60;99.90;;;;;;5042741;28;20048;-69
2023/08/16 11:40:09;;;;;;;4.82;1.00;;;21.60;99.90;;;;;;5025513;28;20060;-69
2023/08/16 11:42:35;;;;;;;2.63;0.80;;;21.70;99.90;;;;;;5039675;28;20068;-68
2023/08/16 11:45:01;;;;;;;7.40;1.10;;;21.70;99.90;;;;;;5043877;28;20055;-69
2023/08/16 11:47:27;;;;;;;4.30;1.02;;;21.80;99.90;;;;;;5036910;28;20444;-69
2023/08/16 11:49:53;;;;;;;2.63;0.80;;;21.90;99.90;;;;;;5053863;28;20041;-69
2023/08/16 11:52:25;;;;;;;3.05;1.40;;;22.00;99.90;;;;;;5038344;28;20041;-69
2023/08/16 11:55:05;;;;;;;3.88;0.95;;;22.00;99.90;;;;;;5030345;28;20768;-69
2023/08/16 11:57:48;;;;;;;3.88;0.90;;;22.10;99.90;;;;;;5037951;28;20057;-69
2023/08/16 12:00:24;;;;;;;3.45;1.05;;;22.20;99.90;;;;;;5040225;28;20041;-69
2023/08/16 12:02:50;;;;;;;2.95;0.90;;;22.20;99.90;;;;;;5043266;28;20048;-68
2023/08/16 12:05:16;;;;;;;2.40;0.70;;;22.20;99.90;;;;;;5042126;28;20044;-69
2023/08/16 12:07:48;;;;;;;3.85;0.95;;;22.20;99.90;;;;;;5040901;28;20047;-69
2023/08/16 12:10:25;;;;;;;4.72;1.02;;;22.20;99.90;;;;;;5040238;28;20135;-69
2023/08/16 12:12:52;;;;;;;3.67;1.02;;;22.20;99.90;;;;;;5072251;28;20514;-69
2023/08/16 12:15:28;;;;;;;2.80;1.00;;;22.20;99.90;;;;;;5041031;28;20103;-69
2023/08/16 12:17:55;;;;;;;3.35;1.20;;;22.30;99.90;;;;;;5022010;28;20244;-69
2023/08/16 12:20:25;;;;;;;2.80;0.93;;;22.30;99.90;;;;;;5038376;28;20398;-68
2023/08/16 12:22:52;;;;;;;2.47;0.88;;;22.30;99.90;;;;;;5040586;28;20546;-69
2023/08/16 12:25:18;;;;;;;5.35;1.00;;;22.30;99.90;;;;;;5040866;28;20547;-69
2023/08/16 12:27:44;;;;;;;2.90;0.90;;;22.40;99.90;;;;;;5039012;28;20056;-69
2023/08/16 12:30:10;;;;;;;4.95;1.20;;;22.40;99.90;;;;;;5033396;28;20053;-68
2023/08/16 12:32:36;;;;;;;3.67;1.00;;;22.50;99.90;;;;;;5040685;28;20087;-69
2023/08/16 12:35:01;;;;;;;4.78;1.20;;;22.60;99.90;;;;;;5040483;28;20510;-68
2023/08/16 12:37:27;;;;;;;2.72;0.90;;;22.60;99.90;;;;;;5032102;28;20103;-69
2023/08/16 12:39:53;;;;;;;3.28;0.80;;;22.70;99.90;;;;;;5036669;28;20489;-69
2023/08/16 12:42:19;;;;;;;4.18;1.02;;;22.80;99.90;;;;;;5039838;28;20098;-68
2023/08/16 12:44:44;;;;;;;5.57;1.05;;;22.80;99.90;;;;;;5033877;28;20048;-68